Aviation Digital Data Service (ADDS)

Output produced by METARs form (0356 UTC 31 October 2014)
found at http://www.aviationweather.gov/adds/metars/
 
KCRQ 310353Z AUTO 26004KT 10SM CLR 19/17 A2997 RMK AO2 SLP147 T01940167
KCRQ 310253Z AUTO 00000KT 10SM CLR 19/17 A2994 RMK AO2 SLP135 T01890167 56003
KCRQ 310153Z AUTO 27004KT 10SM SCT014 20/17 A2995 RMK AO2 SLP139 T02000167
KCRQ 310053Z AUTO 00000KT 10SM CLR 21/17 A2993 RMK AO2 SLP133 T02060167
KCRQ 310022Z AUTO 26004KT 10SM SCT016 21/16 A2994 RMK AO2 T02060161
KCRQ 310008Z AUTO 27007KT 10SM BKN016 21/17 A2995 RMK AO2 T02060167
KCRQ 302339Z 3100/3124 25009KT P6SM SCT013 SCT200 
     TEMPO 3100/3102 BKN013 
     FM310200 VRB04KT P6SM SCT012 BKN200 
     FM310700 VRB03KT P6SM OVC010 
     FM311600 VRB03KT P6SM BKN020 
     FM312000 25009KT P6SM BKN023